Main page
METAR-TAF:

METAR-TAF

Airports :

Abadan-Ayatollah Jami International Airport

Abadan, Iran

latitude: 30-22N, longitude: 048-15E, elevation: 3 m

Current weather observation

The report was made 1 hour and 1 minutes ago, at 23:00 UTC
Wind 4 kt from the West/Southwest
Temperature 28°C
Humidity 40%
Pressure 1007 hPa
Visibility 10 km or more
no clouds below 1500 m and no cumulonimbus

METAR: OIAA 222300Z 25004KT CAVOK 28/13 Q1007

Time: 04:31 (00:01 UTC)

Forecast

The report was made 1 hour and 1 minutes ago, at 23:00 UTC
Forecast valid from 23 at 00 UTC to 24 at 06 UTC
Wind 8 kt from the West/Northwest
Visibility: 8000 m
Temporary
from 23 at 10 UTC to 23 at 15 UTC
Wind 18 kt from the West/Northwest

TAF: OIAA 222300Z 2300/2406 30008KT 8000 NSC TEMPO 2310/2315 30018KT

Weather observations and forecasts of more than 4000 airports (METAR and TAF reports).

The available stations are represented by yellow and red dots on the map.

Hover mouse over dot to see the name of the station.

Then click to see weather observations and forecasts.

To change the map : click on the green buttons with a black cross to zoom in, on the green button with a dash to zoom out, or on the green arrows for adjacent maps.


METAR-TAF: